createdAt,value
2022-11-18T00:02:08.688Z,23.30
2022-11-18T00:04:35.570Z,23.30
2022-11-18T00:07:02.511Z,23.30
2022-11-18T00:09:29.368Z,23.30
2022-11-18T00:12:14.537Z,23.30
2022-11-18T00:14:41.385Z,23.30
2022-11-18T00:17:08.201Z,23.30
2022-11-18T00:19:37.400Z,23.30
2022-11-18T00:22:05.474Z,23.30
2022-11-18T00:24:32.393Z,23.30
2022-11-18T00:26:59.837Z,23.30
2022-11-18T00:29:28.240Z,23.30
2022-11-18T00:31:55.895Z,23.30
2022-11-18T00:34:23.200Z,23.30
2022-11-18T00:36:50.160Z,23.30
2022-11-18T00:39:19.187Z,23.30
2022-11-18T00:42:05.073Z,23.30
2022-11-18T00:44:31.969Z,23.30
2022-11-18T00:46:59.007Z,23.20
2022-11-18T00:49:26.023Z,23.20
2022-11-18T00:51:52.889Z,23.30
2022-11-18T00:54:20.139Z,23.30
2022-11-18T00:56:46.995Z,23.20
2022-11-18T00:59:13.825Z,23.20
2022-11-18T01:01:40.907Z,23.20
2022-11-18T01:04:07.756Z,23.30
2022-11-18T01:06:34.622Z,23.20
2022-11-18T01:09:01.452Z,23.20
2022-11-18T01:11:46.937Z,23.20
2022-11-18T01:14:13.887Z,23.20
2022-11-18T01:16:40.817Z,23.20
2022-11-18T01:19:07.694Z,23.20
2022-11-18T01:21:34.528Z,23.20
2022-11-18T01:24:01.383Z,23.20
2022-11-18T01:26:28.263Z,23.20
2022-11-18T01:28:57.515Z,23.20
2022-11-18T01:31:24.610Z,23.20
2022-11-18T01:33:51.487Z,23.10
2022-11-18T01:36:21.105Z,23.10
2022-11-18T01:38:48.659Z,23.10
2022-11-18T01:41:15.894Z,23.10
2022-11-18T01:44:00.402Z,23.10
2022-11-18T01:46:29.562Z,23.10
2022-11-18T01:48:59.115Z,23.10
2022-11-18T01:51:39.358Z,23.00
2022-11-18T01:54:10.197Z,23.00
2022-11-18T01:56:41.039Z,23.00
2022-11-18T01:59:11.718Z,23.00
2022-11-18T02:01:38.763Z,23.00
2022-11-18T02:04:06.895Z,23.00
2022-11-18T02:06:33.948Z,23.00
2022-11-18T02:09:01.222Z,23.00
2022-11-18T02:11:46.754Z,23.00
2022-11-18T02:14:13.754Z,23.00
2022-11-18T02:16:52.601Z,22.90
2022-11-18T02:19:51.066Z,23.00
2022-11-18T02:22:54.868Z,23.00
2022-11-18T02:25:24.656Z,22.90
2022-11-18T02:28:13.052Z,22.90
2022-11-18T02:30:48.098Z,22.90
2022-11-18T02:33:34.026Z,22.90
2022-11-18T02:36:47.857Z,22.90
2022-11-18T02:39:25.505Z,22.90
2022-11-18T02:41:54.534Z,22.80
2022-11-18T02:44:22.377Z,22.80
2022-11-18T02:46:53.347Z,22.80
2022-11-18T02:49:32.488Z,22.80
2022-11-18T02:51:59.258Z,22.80
2022-11-18T02:54:28.036Z,22.70
2022-11-18T02:56:55.607Z,22.70
2022-11-18T02:59:22.508Z,22.70
2022-11-18T03:01:49.589Z,22.70
2022-11-18T03:04:17.749Z,22.80
2022-11-18T03:07:01.398Z,22.80
2022-11-18T03:09:37.812Z,22.80
2022-11-18T03:12:16.926Z,22.70
2022-11-18T03:15:04.172Z,22.70
2022-11-18T03:17:55.318Z,22.70
2022-11-18T03:20:32.893Z,22.60
2022-11-18T03:23:19.093Z,22.60
2022-11-18T03:25:56.292Z,22.70
2022-11-18T03:28:29.167Z,22.70
2022-11-18T03:31:02.321Z,22.60
2022-11-18T03:33:36.130Z,22.60
2022-11-18T03:36:06.241Z,22.70
2022-11-18T03:38:36.845Z,22.70
2022-11-18T03:41:07.844Z,22.70
2022-11-18T03:43:41.164Z,22.70
2022-11-18T03:46:16.770Z,22.70
2022-11-18T03:48:55.422Z,22.70
2022-11-18T03:51:31.174Z,22.70
2022-11-18T03:54:04.226Z,22.60
2022-11-18T03:56:35.378Z,22.60
2022-11-18T03:59:20.857Z,22.60
2022-11-18T04:02:06.000Z,22.60
2022-11-18T04:04:32.921Z,22.60
2022-11-18T04:07:10.419Z,22.50
2022-11-18T04:09:42.835Z,22.60
2022-11-18T04:12:13.282Z,22.60
2022-11-18T04:14:42.434Z,22.60
2022-11-18T04:17:13.570Z,22.60
2022-11-18T04:19:40.821Z,22.50
2022-11-18T04:22:08.444Z,22.40
2022-11-18T04:24:35.546Z,22.50
2022-11-18T04:27:03.098Z,22.50
2022-11-18T04:29:31.178Z,22.50
2022-11-18T04:31:58.638Z,22.60
2022-11-18T04:34:25.533Z,22.60
2022-11-18T04:36:52.685Z,22.60
2022-11-18T04:39:20.014Z,22.60
2022-11-18T04:41:55.848Z,22.50
2022-11-18T04:44:27.906Z,22.50
2022-11-18T04:46:55.828Z,22.60
2022-11-18T04:49:23.366Z,22.50
2022-11-18T04:51:50.568Z,22.50
2022-11-18T04:54:18.224Z,22.50
2022-11-18T04:56:48.973Z,22.50
2022-11-18T04:59:19.753Z,22.50
2022-11-18T05:01:47.242Z,22.50
2022-11-18T05:04:16.559Z,22.50
2022-11-18T05:06:43.335Z,22.50
2022-11-18T05:09:10.763Z,22.50
2022-11-18T05:11:56.605Z,22.40
2022-11-18T05:14:34.358Z,22.50
2022-11-18T05:17:02.957Z,22.50
2022-11-18T05:19:29.894Z,22.50
2022-11-18T05:21:56.764Z,22.50
2022-11-18T05:24:26.436Z,22.50
2022-11-18T05:26:54.669Z,22.50
2022-11-18T05:29:22.302Z,22.50
2022-11-18T05:31:49.598Z,22.50
2022-11-18T05:34:16.992Z,22.50
2022-11-18T05:36:43.852Z,22.50
2022-11-18T05:39:10.815Z,22.50
2022-11-18T05:41:55.995Z,22.50
2022-11-18T05:44:22.893Z,22.50
2022-11-18T05:46:49.761Z,22.60
2022-11-18T05:49:16.884Z,22.60
2022-11-18T05:51:43.905Z,22.60
2022-11-18T05:54:11.841Z,22.60
2022-11-18T05:56:41.296Z,22.60
2022-11-18T05:59:08.517Z,22.60
2022-11-18T06:01:43.573Z,22.60
2022-11-18T06:04:28.633Z,22.60
2022-11-18T06:06:59.443Z,22.60
2022-11-18T06:09:30.696Z,22.60
2022-11-18T06:11:59.353Z,22.60
2022-11-18T06:14:31.238Z,22.60
2022-11-18T06:17:00.770Z,22.60
2022-11-18T06:19:27.770Z,22.60
2022-11-18T06:21:54.702Z,22.60
2022-11-18T06:24:21.638Z,22.60
2022-11-18T06:26:48.733Z,22.60
2022-11-18T06:29:19.498Z,22.60
2022-11-18T06:31:48.502Z,22.60
2022-11-18T06:34:15.350Z,22.50
2022-11-18T06:36:42.161Z,22.50
2022-11-18T06:39:09.047Z,22.60
2022-11-18T06:41:35.942Z,22.60
2022-11-18T06:44:02.929Z,22.60
2022-11-18T06:46:48.177Z,22.60
2022-11-18T06:49:15.242Z,22.60
2022-11-18T06:51:42.327Z,22.60
2022-11-18T06:54:10.971Z,22.60
2022-11-18T06:56:38.259Z,22.60
2022-11-18T06:59:05.462Z,22.50
2022-11-18T07:01:35.577Z,22.60
2022-11-18T07:04:02.608Z,22.50
2022-11-18T07:06:31.582Z,22.60
2022-11-18T07:09:01.171Z,22.50
2022-11-18T07:11:28.510Z,22.60
2022-11-18T07:13:55.580Z,22.60
2022-11-18T07:16:26.813Z,22.60
2022-11-18T07:18:54.517Z,22.60
2022-11-18T07:21:23.554Z,22.60
2022-11-18T07:23:50.560Z,22.50
2022-11-18T07:26:17.893Z,22.50
2022-11-18T07:28:44.808Z,22.60
2022-11-18T07:31:13.817Z,22.50
2022-11-18T07:33:41.843Z,22.50
2022-11-18T07:36:14.496Z,22.40
2022-11-18T07:38:41.774Z,22.40
2022-11-18T07:41:16.859Z,22.30
2022-11-18T07:43:44.441Z,22.20
2022-11-18T07:46:26.441Z,22.10
2022-11-18T07:48:55.066Z,22.10
2022-11-18T07:51:24.079Z,21.90
2022-11-18T07:53:51.023Z,21.90
2022-11-18T07:56:18.522Z,21.90
2022-11-18T07:58:45.959Z,21.90
2022-11-18T08:01:17.193Z,21.90
2022-11-18T08:03:44.866Z,21.90
2022-11-18T08:06:13.560Z,21.90
2022-11-18T08:08:41.053Z,22.00
2022-11-18T08:11:10.233Z,22.00
2022-11-18T08:13:36.993Z,22.00
2022-11-18T08:16:04.733Z,22.00
2022-11-18T08:18:32.646Z,21.90
2022-11-18T08:21:05.898Z,22.00
2022-11-18T08:23:36.232Z,22.20
2022-11-18T08:26:08.602Z,22.20
2022-11-18T08:28:35.795Z,22.20
2022-11-18T08:31:26.898Z,22.30
2022-11-18T08:33:57.691Z,22.40
2022-11-18T08:36:27.120Z,22.50
2022-11-18T08:38:56.590Z,22.50
2022-11-18T08:41:38.189Z,22.60
2022-11-18T08:44:05.898Z,22.60
2022-11-18T08:46:32.835Z,22.70
2022-11-18T08:48:59.798Z,22.70
2022-11-18T08:51:26.917Z,22.80
2022-11-18T08:53:53.759Z,22.90
2022-11-18T08:56:21.959Z,22.90
2022-11-18T08:58:48.818Z,23.00
2022-11-18T09:01:15.767Z,23.00
2022-11-18T09:03:42.722Z,23.10
2022-11-18T09:06:20.934Z,23.10
2022-11-18T09:08:48.124Z,23.20
2022-11-18T09:11:23.472Z,23.10
2022-11-18T09:16:45.584Z,23.20
2022-11-18T09:19:40.165Z,23.20
2022-11-18T09:21:59.329Z,23.20
2022-11-18T09:24:26.231Z,23.20
2022-11-18T09:26:53.960Z,23.30
2022-11-18T09:29:25.338Z,23.30
2022-11-18T09:31:53.126Z,23.30
2022-11-18T09:34:20.359Z,23.30
2022-11-18T09:36:47.474Z,23.30
2022-11-18T09:39:14.502Z,23.30
2022-11-18T09:41:47.149Z,23.40
2022-11-18T09:44:58.441Z,23.40
2022-11-18T09:47:31.485Z,23.40
2022-11-18T09:50:33.919Z,23.40
2022-11-18T09:53:19.651Z,23.40
2022-11-18T09:55:47.798Z,23.50
2022-11-18T09:58:35.377Z,23.40
2022-11-18T10:01:03.550Z,23.50
2022-11-18T10:03:33.062Z,23.50
2022-11-18T10:06:11.776Z,23.50
2022-11-18T10:08:47.683Z,23.60
2022-11-18T10:11:19.550Z,23.60
2022-11-18T10:14:04.877Z,23.50
2022-11-18T10:16:47.203Z,23.50
2022-11-18T10:19:35.721Z,23.50
2022-11-18T10:22:24.785Z,23.50
2022-11-18T10:24:54.571Z,23.50
2022-11-18T10:27:22.016Z,23.50
2022-11-18T10:29:53.231Z,23.50
2022-11-18T10:32:20.319Z,23.60
2022-11-18T10:34:50.514Z,23.60
2022-11-18T10:38:00.297Z,23.60
2022-11-18T10:40:27.356Z,23.70
2022-11-18T10:42:54.436Z,23.70
2022-11-18T10:45:28.116Z,23.60
2022-11-18T10:48:15.770Z,23.60
2022-11-18T10:50:45.802Z,23.60
2022-11-18T10:53:34.049Z,23.60
2022-11-18T10:56:02.371Z,23.60
2022-11-18T10:58:31.113Z,23.60
2022-11-18T11:01:16.157Z,23.60
2022-11-18T11:03:58.294Z,23.70
2022-11-18T11:06:32.459Z,23.60
2022-11-18T11:09:02.396Z,23.60
2022-11-18T11:11:32.276Z,23.60
2022-11-18T11:14:12.079Z,23.60
2022-11-18T11:17:08.736Z,23.60
2022-11-18T11:20:03.483Z,23.60
2022-11-18T11:22:30.352Z,23.60
2022-11-18T11:24:57.216Z,23.50
2022-11-18T11:30:26.331Z,23.60
2022-11-18T11:33:11.565Z,23.50
2022-11-18T11:36:11.671Z,23.60
2022-11-18T11:38:50.156Z,23.60
2022-11-18T11:41:16.947Z,23.60
2022-11-18T11:44:08.568Z,23.50
2022-11-18T11:47:20.950Z,23.60
2022-11-18T11:49:56.674Z,23.60
2022-11-18T11:53:02.439Z,23.50
2022-11-18T11:56:03.505Z,23.60
2022-11-18T11:58:33.445Z,23.60
2022-11-18T12:01:26.571Z,23.60
2022-11-18T12:04:03.159Z,23.60
2022-11-18T12:06:30.365Z,23.60
2022-11-18T12:09:14.418Z,23.60
2022-11-18T12:11:55.870Z,23.70
2022-11-18T12:14:42.304Z,23.70
2022-11-18T12:17:17.279Z,23.70
2022-11-18T12:19:44.155Z,23.70
2022-11-18T12:22:10.985Z,23.70
2022-11-18T12:24:39.686Z,23.70
2022-11-18T12:27:14.112Z,23.70
2022-11-18T12:29:48.544Z,23.70
2022-11-18T12:32:46.875Z,23.70
2022-11-18T12:35:13.837Z,23.70
2022-11-18T12:37:52.551Z,23.60
2022-11-18T12:40:37.801Z,23.70
2022-11-18T12:43:44.418Z,23.70
2022-11-18T12:46:34.392Z,23.70
2022-11-18T12:49:23.194Z,23.70
2022-11-18T12:51:54.729Z,23.70
2022-11-18T12:54:34.049Z,23.70
2022-11-18T12:57:17.613Z,23.80
2022-11-18T12:59:44.553Z,23.70
2022-11-18T13:02:11.348Z,23.70
2022-11-18T13:04:45.083Z,23.70
2022-11-18T13:07:34.203Z,23.70
2022-11-18T13:10:02.500Z,23.70
2022-11-18T13:12:30.285Z,23.70
2022-11-18T13:15:16.151Z,23.70
2022-11-18T13:17:53.045Z,23.70
2022-11-18T13:20:33.378Z,23.70
2022-11-18T13:23:21.669Z,23.70
2022-11-18T13:25:49.734Z,23.60
2022-11-18T13:28:45.145Z,23.60
2022-11-18T13:31:25.434Z,23.60
2022-11-18T13:33:52.705Z,23.60
2022-11-18T13:36:23.866Z,23.50
2022-11-18T13:39:07.254Z,23.50
2022-11-18T13:41:35.298Z,23.60
2022-11-18T13:44:24.580Z,23.50
2022-11-18T13:47:13.582Z,23.60
2022-11-18T13:49:50.705Z,23.50
2022-11-18T13:52:25.410Z,23.50
2022-11-18T13:54:53.378Z,23.40
2022-11-18T13:57:22.537Z,23.40
2022-11-18T13:59:50.192Z,23.50
2022-11-18T14:02:17.743Z,23.50
2022-11-18T14:05:20.342Z,23.50
2022-11-18T14:08:25.752Z,23.60
2022-11-18T14:10:52.586Z,23.50
2022-11-18T14:13:28.367Z,23.50
2022-11-18T14:15:56.740Z,23.50
2022-11-18T14:18:32.485Z,23.50
2022-11-18T14:21:00.575Z,23.60
2022-11-18T14:23:29.100Z,23.50
2022-11-18T14:25:57.096Z,23.60
2022-11-18T14:28:30.534Z,23.50
2022-11-18T14:30:59.953Z,23.50
2022-11-18T14:33:35.092Z,23.50
2022-11-18T14:36:15.305Z,23.60
2022-11-18T14:39:11.244Z,23.60
2022-11-18T14:41:49.788Z,23.60
2022-11-18T14:44:18.701Z,23.60
2022-11-18T14:47:21.040Z,23.60
2022-11-18T14:49:47.883Z,23.60
2022-11-18T14:52:14.686Z,23.50
2022-11-18T14:54:41.570Z,23.50
2022-11-18T14:57:12.849Z,23.50
2022-11-18T14:59:39.693Z,23.60
2022-11-18T15:02:14.500Z,23.60
2022-11-18T15:04:41.486Z,23.60
2022-11-18T15:07:23.135Z,23.60
2022-11-18T15:09:50.948Z,23.60
2022-11-18T15:12:17.917Z,23.60
2022-11-18T15:14:44.765Z,23.60
2022-11-18T15:17:12.465Z,23.60
2022-11-18T15:19:40.782Z,23.60
2022-11-18T15:22:08.132Z,23.50
2022-11-18T15:24:35.021Z,23.60
2022-11-18T15:27:05.399Z,23.60
2022-11-18T15:29:32.409Z,23.60
2022-11-18T15:32:00.083Z,23.60
2022-11-18T15:34:27.011Z,23.70
2022-11-18T15:36:53.929Z,23.70
2022-11-18T15:39:20.807Z,23.70
2022-11-18T15:41:48.753Z,23.70
2022-11-18T15:44:16.016Z,23.70
2022-11-18T15:46:45.386Z,23.70
2022-11-18T15:49:12.963Z,23.70
2022-11-18T15:51:40.339Z,23.60
2022-11-18T15:54:07.225Z,23.60
2022-11-18T15:56:34.228Z,23.70
2022-11-18T15:59:06.604Z,23.70
2022-11-18T16:01:38.710Z,23.70
2022-11-18T16:04:07.211Z,23.70
2022-11-18T16:06:34.274Z,23.70
2022-11-18T16:09:01.388Z,23.70
2022-11-18T16:11:47.874Z,23.70
2022-11-18T16:14:17.381Z,23.70
2022-11-18T16:16:46.221Z,23.70
2022-11-18T16:19:15.658Z,23.60
2022-11-18T16:21:44.623Z,23.70
2022-11-18T16:24:14.312Z,23.70
2022-11-18T16:26:41.315Z,23.70
2022-11-18T16:29:10.321Z,23.80
2022-11-18T16:31:40.367Z,23.80
2022-11-18T16:34:11.089Z,23.80
2022-11-18T16:36:39.874Z,23.90
2022-11-18T16:39:12.243Z,23.90
2022-11-18T16:41:40.048Z,23.90
2022-11-18T16:44:14.790Z,23.90
2022-11-18T16:46:52.698Z,24.00
2022-11-18T16:49:22.244Z,24.00
2022-11-18T16:51:51.827Z,24.00
2022-11-18T16:54:18.690Z,24.00
2022-11-18T16:56:46.768Z,24.00
2022-11-18T16:59:24.379Z,24.00
2022-11-18T17:01:52.943Z,24.00
2022-11-18T17:04:20.795Z,24.00
2022-11-18T17:06:47.886Z,24.00
2022-11-18T17:09:20.197Z,24.00
2022-11-18T17:11:47.900Z,24.00
2022-11-18T17:14:14.877Z,24.00
2022-11-18T17:16:41.817Z,24.10
2022-11-18T17:19:13.254Z,24.10
2022-11-18T17:21:40.264Z,24.10
2022-11-18T17:24:07.812Z,24.10
2022-11-18T17:26:34.779Z,24.20
2022-11-18T17:29:01.645Z,24.10
2022-11-18T17:31:28.460Z,24.10
2022-11-18T17:33:56.154Z,24.10
2022-11-18T17:36:27.160Z,24.20
2022-11-18T17:38:56.296Z,24.20
2022-11-18T17:41:43.982Z,24.20
2022-11-18T17:44:13.549Z,24.10
2022-11-18T17:46:40.553Z,24.10
2022-11-18T17:49:13.631Z,24.10
2022-11-18T17:51:41.102Z,24.10
2022-11-18T17:54:08.819Z,24.10
2022-11-18T17:56:36.117Z,24.10
2022-11-18T17:59:03.103Z,24.10
2022-11-18T18:01:30.209Z,24.10
2022-11-18T18:03:57.464Z,24.10
2022-11-18T18:06:24.443Z,24.00
2022-11-18T18:08:56.100Z,24.10
2022-11-18T18:11:23.484Z,24.10
2022-11-18T18:14:08.836Z,24.00
2022-11-18T18:16:36.032Z,24.10
2022-11-18T18:19:04.945Z,24.10
2022-11-18T18:21:32.486Z,24.10
2022-11-18T18:23:59.842Z,24.10
2022-11-18T18:26:31.258Z,24.10
2022-11-18T18:28:59.883Z,24.10
2022-11-18T18:31:27.366Z,24.10
2022-11-18T18:33:54.334Z,24.10
2022-11-18T18:36:21.757Z,24.10
2022-11-18T18:38:48.738Z,24.10
2022-11-18T18:41:17.544Z,24.10
2022-11-18T18:43:46.049Z,24.20
2022-11-18T18:46:30.673Z,24.10
2022-11-18T18:49:11.853Z,24.10
2022-11-18T18:51:43.661Z,24.10
2022-11-18T18:54:11.967Z,24.10
2022-11-18T18:56:39.084Z,24.10
2022-11-18T18:59:06.779Z,24.10
2022-11-18T19:01:34.161Z,24.10
2022-11-18T19:04:03.050Z,24.10
2022-11-18T19:06:58.276Z,24.10
2022-11-18T19:09:22.128Z,24.10
2022-11-18T19:12:07.690Z,24.10
2022-11-18T19:14:35.453Z,24.10
2022-11-18T19:17:08.164Z,24.10
2022-11-18T19:19:55.719Z,24.10
2022-11-18T19:22:22.709Z,24.20
2022-11-18T19:24:50.808Z,24.10
2022-11-18T19:27:20.751Z,24.20
2022-11-18T19:29:47.861Z,24.20
2022-11-18T19:32:15.049Z,24.20
2022-11-18T19:34:42.034Z,24.20
2022-11-18T19:37:08.960Z,24.20
2022-11-18T19:39:37.894Z,24.20
2022-11-18T19:42:05.111Z,24.20
2022-11-18T19:44:31.948Z,24.20
2022-11-18T19:46:59.176Z,24.20
2022-11-18T19:49:25.977Z,24.20
2022-11-18T19:51:52.817Z,24.30
2022-11-18T19:54:19.687Z,24.30
2022-11-18T19:56:46.551Z,24.30
2022-11-18T19:59:13.495Z,24.30
2022-11-18T20:01:40.571Z,24.30
2022-11-18T20:04:07.522Z,24.20
2022-11-18T20:06:35.589Z,24.30
2022-11-18T20:09:03.213Z,24.30
2022-11-18T20:11:30.024Z,24.30
2022-11-18T20:13:56.895Z,24.20
2022-11-18T20:16:25.130Z,24.30
2022-11-18T20:18:59.558Z,24.30
2022-11-18T20:21:27.868Z,24.30
2022-11-18T20:23:57.098Z,24.30
2022-11-18T20:26:25.993Z,24.30
2022-11-18T20:28:57.489Z,24.30
2022-11-18T20:31:25.334Z,24.30
2022-11-18T20:33:53.732Z,24.30
2022-11-18T20:36:32.543Z,24.30
2022-11-18T20:39:01.403Z,24.30
2022-11-18T20:41:32.357Z,24.20
2022-11-18T20:44:00.004Z,24.30
2022-11-18T20:46:27.521Z,24.30
2022-11-18T20:48:55.258Z,24.30
2022-11-18T20:51:24.195Z,24.30
2022-11-18T20:53:52.604Z,24.30
2022-11-18T20:56:22.021Z,24.30
2022-11-18T20:58:49.316Z,24.30
2022-11-18T21:01:25.473Z,24.30
2022-11-18T21:03:57.631Z,24.30
2022-11-18T21:06:26.993Z,24.30
2022-11-18T21:09:02.507Z,24.30
2022-11-18T21:11:30.041Z,24.30
2022-11-18T21:14:29.133Z,24.30
2022-11-18T21:17:00.422Z,24.30
2022-11-18T21:19:28.733Z,24.20
2022-11-18T21:21:56.226Z,24.20
2022-11-18T21:24:29.701Z,24.20
2022-11-18T21:26:57.881Z,24.20
2022-11-18T21:29:29.150Z,24.20
2022-11-18T21:31:56.408Z,24.20
2022-11-18T21:34:23.353Z,24.20
2022-11-18T21:36:54.365Z,24.20
2022-11-18T21:39:25.318Z,24.20
2022-11-18T21:41:56.275Z,24.10
2022-11-18T21:44:23.531Z,24.10
2022-11-18T21:46:50.471Z,24.10
2022-11-18T21:49:17.881Z,24.10
2022-11-18T21:51:45.496Z,24.10
2022-11-18T21:54:12.987Z,24.10
2022-11-18T21:56:39.965Z,24.10
2022-11-18T21:59:07.684Z,24.10
2022-11-18T22:01:34.956Z,24.10
2022-11-18T22:04:03.859Z,24.10
2022-11-18T22:06:33.464Z,24.00
2022-11-18T22:09:01.334Z,24.00
2022-11-18T22:11:28.733Z,24.00
2022-11-18T22:13:55.754Z,24.00
2022-11-18T22:16:23.726Z,24.00
2022-11-18T22:18:57.285Z,24.00
2022-11-18T22:21:26.823Z,24.00
2022-11-18T22:23:57.810Z,24.00
2022-11-18T22:26:24.672Z,24.00
2022-11-18T22:28:56.689Z,24.00
2022-11-18T22:31:25.381Z,24.00
2022-11-18T22:33:52.505Z,24.00
2022-11-18T22:36:21.096Z,24.00
2022-11-18T22:38:48.087Z,24.00
2022-11-18T22:41:41.912Z,24.00
2022-11-18T22:44:09.751Z,24.00
2022-11-18T22:46:37.632Z,23.90
2022-11-18T22:49:05.470Z,23.90
2022-11-18T22:51:32.403Z,23.90
2022-11-18T22:54:30.621Z,23.90
2022-11-18T22:56:46.290Z,23.90
2022-11-18T22:59:13.354Z,23.90
2022-11-18T23:01:40.292Z,23.90
2022-11-18T23:04:07.331Z,23.90
2022-11-18T23:06:34.196Z,23.90
2022-11-18T23:09:01.104Z,23.90
2022-11-18T23:11:46.389Z,23.90
2022-11-18T23:14:13.319Z,23.90
2022-11-18T23:16:41.938Z,23.80
2022-11-18T23:19:13.984Z,23.90
2022-11-18T23:21:41.633Z,23.80
2022-11-18T23:24:16.185Z,23.80
2022-11-18T23:26:43.618Z,23.90
2022-11-18T23:29:12.002Z,23.80
2022-11-18T23:31:42.802Z,23.80
2022-11-18T23:34:14.329Z,23.80
2022-11-18T23:36:41.477Z,23.80
2022-11-18T23:39:08.483Z,23.80
2022-11-18T23:41:35.579Z,23.80
2022-11-18T23:44:02.639Z,23.80
2022-11-18T23:46:29.911Z,23.80
2022-11-18T23:48:57.001Z,23.80
2022-11-18T23:51:25.011Z,23.80
2022-11-18T23:53:54.127Z,23.80
2022-11-18T23:56:21.611Z,23.80
2022-11-18T23:58:50.601Z,23.70
